sensor_id;sensor_type;location;lat;lon;timestamp;P1;durP1;ratioP1;P2;durP2;ratioP2
40290;SDS011;26000;48.304;13.626;2022-12-20T00:01:30;69.78;;;34.85;;
40290;SDS011;26000;48.304;13.626;2022-12-20T00:03:59;72.60;;;33.60;;
40290;SDS011;26000;48.304;13.626;2022-12-20T00:06:26;76.05;;;35.90;;
40290;SDS011;26000;48.304;13.626;2022-12-20T00:08:56;74.85;;;36.22;;
40290;SDS011;26000;48.304;13.626;2022-12-20T00:11:23;69.93;;;34.85;;
40290;SDS011;26000;48.304;13.626;2022-12-20T00:13:49;72.32;;;35.13;;
40290;SDS011;26000;48.304;13.626;2022-12-20T00:16:18;75.63;;;36.53;;
40290;SDS011;26000;48.304;13.626;2022-12-20T00:18:46;74.22;;;35.50;;
40290;SDS011;26000;48.304;13.626;2022-12-20T00:21:15;70.65;;;34.85;;
40290;SDS011;26000;48.304;13.626;2022-12-20T00:23:41;73.40;;;35.78;;
40290;SDS011;26000;48.304;13.626;2022-12-20T00:26:07;72.82;;;35.55;;
40290;SDS011;26000;48.304;13.626;2022-12-20T00:28:35;73.43;;;35.67;;
40290;SDS011;26000;48.304;13.626;2022-12-20T00:31:02;71.82;;;35.72;;
40290;SDS011;26000;48.304;13.626;2022-12-20T00:33:28;73.90;;;34.63;;
40290;SDS011;26000;48.304;13.626;2022-12-20T00:35:54;74.57;;;35.90;;
40290;SDS011;26000;48.304;13.626;2022-12-20T00:38:22;71.90;;;34.78;;
40290;SDS011;26000;48.304;13.626;2022-12-20T00:41:01;73.45;;;35.08;;
40290;SDS011;26000;48.304;13.626;2022-12-20T00:43:34;76.53;;;36.42;;
40290;SDS011;26000;48.304;13.626;2022-12-20T00:46:01;76.07;;;36.78;;
40290;SDS011;26000;48.304;13.626;2022-12-20T00:48:27;77.82;;;36.13;;
40290;SDS011;26000;48.304;13.626;2022-12-20T00:50:57;71.57;;;35.00;;
40290;SDS011;26000;48.304;13.626;2022-12-20T00:53:24;76.55;;;36.67;;
40290;SDS011;26000;48.304;13.626;2022-12-20T00:55:50;71.40;;;34.95;;
40290;SDS011;26000;48.304;13.626;2022-12-20T00:58:15;73.90;;;35.40;;
40290;SDS011;26000;48.304;13.626;2022-12-20T01:00:41;73.82;;;35.95;;
40290;SDS011;26000;48.304;13.626;2022-12-20T01:03:07;74.40;;;36.60;;
40290;SDS011;26000;48.304;13.626;2022-12-20T01:05:33;75.30;;;35.58;;
40290;SDS011;26000;48.304;13.626;2022-12-20T01:07:59;77.95;;;36.70;;
40290;SDS011;26000;48.304;13.626;2022-12-20T01:10:25;76.07;;;36.30;;
40290;SDS011;26000;48.304;13.626;2022-12-20T01:12:51;76.63;;;36.05;;
40290;SDS011;26000;48.304;13.626;2022-12-20T01:15:17;73.78;;;35.83;;
40290;SDS011;26000;48.304;13.626;2022-12-20T01:17:43;78.03;;;34.50;;
40290;SDS011;26000;48.304;13.626;2022-12-20T01:20:09;78.07;;;37.10;;
40290;SDS011;26000;48.304;13.626;2022-12-20T01:22:35;75.97;;;36.13;;
40290;SDS011;26000;48.304;13.626;2022-12-20T01:25:01;75.25;;;35.20;;
40290;SDS011;26000;48.304;13.626;2022-12-20T01:27:26;73.15;;;34.97;;
40290;SDS011;26000;48.304;13.626;2022-12-20T01:29:52;76.82;;;35.92;;
40290;SDS011;26000;48.304;13.626;2022-12-20T01:32:19;75.43;;;34.47;;
40290;SDS011;26000;48.304;13.626;2022-12-20T01:34:45;70.30;;;34.22;;
40290;SDS011;26000;48.304;13.626;2022-12-20T01:37:10;77.18;;;35.45;;
40290;SDS011;26000;48.304;13.626;2022-12-20T01:39:36;80.50;;;37.05;;
40290;SDS011;26000;48.304;13.626;2022-12-20T01:42:02;67.45;;;34.03;;
40290;SDS011;26000;48.304;13.626;2022-12-20T01:46:54;74.10;;;35.28;;
40290;SDS011;26000;48.304;13.626;2022-12-20T01:51:56;75.55;;;34.60;;
40290;SDS011;26000;48.304;13.626;2022-12-20T01:54:29;74.15;;;35.05;;
40290;SDS011;26000;48.304;13.626;2022-12-20T01:57:01;77.63;;;35.03;;
40290;SDS011;26000;48.304;13.626;2022-12-20T01:59:28;78.88;;;36.45;;
40290;SDS011;26000;48.304;13.626;2022-12-20T02:01:57;78.20;;;35.60;;
40290;SDS011;26000;48.304;13.626;2022-12-20T02:04:24;74.57;;;35.70;;
40290;SDS011;26000;48.304;13.626;2022-12-20T02:06:49;78.60;;;35.20;;
40290;SDS011;26000;48.304;13.626;2022-12-20T02:09:15;78.38;;;35.58;;
40290;SDS011;26000;48.304;13.626;2022-12-20T02:17:03;74.77;;;35.67;;
40290;SDS011;26000;48.304;13.626;2022-12-20T02:30:34;80.45;;;36.55;;
40290;SDS011;26000;48.304;13.626;2022-12-20T02:33:09;77.47;;;35.65;;
40290;SDS011;26000;48.304;13.626;2022-12-20T02:35:37;78.07;;;35.35;;
40290;SDS011;26000;48.304;13.626;2022-12-20T02:38:22;80.30;;;36.13;;
40290;SDS011;26000;48.304;13.626;2022-12-20T02:40:53;86.13;;;36.20;;
40290;SDS011;26000;48.304;13.626;2022-12-20T02:43:22;85.90;;;36.58;;
40290;SDS011;26000;48.304;13.626;2022-12-20T02:46:08;81.93;;;34.63;;
40290;SDS011;26000;48.304;13.626;2022-12-20T02:48:35;82.65;;;35.45;;
40290;SDS011;26000;48.304;13.626;2022-12-20T02:51:03;84.55;;;36.05;;
40290;SDS011;26000;48.304;13.626;2022-12-20T02:53:30;85.10;;;36.38;;
40290;SDS011;26000;48.304;13.626;2022-12-20T02:56:09;76.32;;;34.72;;
40290;SDS011;26000;48.304;13.626;2022-12-20T02:58:52;81.03;;;34.92;;
40290;SDS011;26000;48.304;13.626;2022-12-20T03:01:34;86.57;;;36.38;;
40290;SDS011;26000;48.304;13.626;2022-12-20T03:04:04;76.63;;;34.17;;
40290;SDS011;26000;48.304;13.626;2022-12-20T03:06:32;78.15;;;34.70;;
40290;SDS011;26000;48.304;13.626;2022-12-20T03:08:58;81.25;;;36.67;;
40290;SDS011;26000;48.304;13.626;2022-12-20T03:11:23;78.85;;;35.28;;
40290;SDS011;26000;48.304;13.626;2022-12-20T03:13:49;77.95;;;35.38;;
40290;SDS011;26000;48.304;13.626;2022-12-20T03:16:14;79.75;;;34.70;;
40290;SDS011;26000;48.304;13.626;2022-12-20T03:18:40;84.65;;;36.45;;
40290;SDS011;26000;48.304;13.626;2022-12-20T03:21:06;81.50;;;35.33;;
40290;SDS011;26000;48.304;13.626;2022-12-20T03:23:32;81.40;;;35.00;;
40290;SDS011;26000;48.304;13.626;2022-12-20T03:25:57;88.82;;;36.50;;
40290;SDS011;26000;48.304;13.626;2022-12-20T03:28:23;85.88;;;36.58;;
40290;SDS011;26000;48.304;13.626;2022-12-20T03:30:48;82.68;;;34.72;;
40290;SDS011;26000;48.304;13.626;2022-12-20T03:33:14;90.65;;;38.47;;
40290;SDS011;26000;48.304;13.626;2022-12-20T03:35:40;92.28;;;36.97;;
40290;SDS011;26000;48.304;13.626;2022-12-20T03:38:05;93.93;;;36.45;;
40290;SDS011;26000;48.304;13.626;2022-12-20T03:40:31;89.07;;;36.35;;
40290;SDS011;26000;48.304;13.626;2022-12-20T03:42:57;92.63;;;37.25;;
40290;SDS011;26000;48.304;13.626;2022-12-20T03:45:22;87.25;;;36.97;;
40290;SDS011;26000;48.304;13.626;2022-12-20T03:47:48;99.85;;;38.00;;
40290;SDS011;26000;48.304;13.626;2022-12-20T03:50:14;97.20;;;38.70;;
40290;SDS011;26000;48.304;13.626;2022-12-20T03:52:39;94.93;;;38.42;;
40290;SDS011;26000;48.304;13.626;2022-12-20T03:55:05;94.60;;;37.58;;
40290;SDS011;26000;48.304;13.626;2022-12-20T03:57:31;95.10;;;37.20;;
40290;SDS011;26000;48.304;13.626;2022-12-20T03:59:57;96.00;;;38.83;;
40290;SDS011;26000;48.304;13.626;2022-12-20T04:02:22;92.50;;;39.13;;
40290;SDS011;26000;48.304;13.626;2022-12-20T04:04:48;102.15;;;38.53;;
40290;SDS011;26000;48.304;13.626;2022-12-20T04:07:14;87.10;;;37.47;;
40290;SDS011;26000;48.304;13.626;2022-12-20T04:09:40;94.65;;;38.40;;
40290;SDS011;26000;48.304;13.626;2022-12-20T04:12:05;93.45;;;37.83;;
40290;SDS011;26000;48.304;13.626;2022-12-20T04:14:31;101.78;;;40.00;;
40290;SDS011;26000;48.304;13.626;2022-12-20T04:16:57;91.15;;;37.13;;
40290;SDS011;26000;48.304;13.626;2022-12-20T04:19:23;91.22;;;38.90;;
40290;SDS011;26000;48.304;13.626;2022-12-20T04:21:48;102.63;;;40.63;;
40290;SDS011;26000;48.304;13.626;2022-12-20T04:24:14;92.75;;;38.72;;
40290;SDS011;26000;48.304;13.626;2022-12-20T04:26:40;96.50;;;40.30;;
40290;SDS011;26000;48.304;13.626;2022-12-20T04:29:06;100.75;;;38.75;;
40290;SDS011;26000;48.304;13.626;2022-12-20T04:31:32;98.32;;;39.45;;
40290;SDS011;26000;48.304;13.626;2022-12-20T04:33:57;94.28;;;38.72;;
40290;SDS011;26000;48.304;13.626;2022-12-20T04:36:23;98.50;;;38.78;;
40290;SDS011;26000;48.304;13.626;2022-12-20T04:38:49;98.35;;;39.65;;
40290;SDS011;26000;48.304;13.626;2022-12-20T04:41:14;96.80;;;39.22;;
40290;SDS011;26000;48.304;13.626;2022-12-20T04:43:50;94.97;;;37.78;;
40290;SDS011;26000;48.304;13.626;2022-12-20T04:46:17;98.40;;;39.33;;
40290;SDS011;26000;48.304;13.626;2022-12-20T04:48:43;92.80;;;38.08;;
40290;SDS011;26000;48.304;13.626;2022-12-20T04:51:08;97.18;;;38.40;;
40290;SDS011;26000;48.304;13.626;2022-12-20T04:53:34;98.47;;;39.15;;
40290;SDS011;26000;48.304;13.626;2022-12-20T04:56:12;101.43;;;38.92;;
40290;SDS011;26000;48.304;13.626;2022-12-20T04:58:39;101.03;;;39.60;;
40290;SDS011;26000;48.304;13.626;2022-12-20T05:01:05;97.55;;;38.20;;
40290;SDS011;26000;48.304;13.626;2022-12-20T05:03:31;101.40;;;39.28;;
40290;SDS011;26000;48.304;13.626;2022-12-20T05:05:56;97.07;;;38.72;;
40290;SDS011;26000;48.304;13.626;2022-12-20T05:08:22;99.32;;;39.00;;
40290;SDS011;26000;48.304;13.626;2022-12-20T05:10:48;89.47;;;37.47;;
40290;SDS011;26000;48.304;13.626;2022-12-20T05:13:14;101.53;;;39.25;;
40290;SDS011;26000;48.304;13.626;2022-12-20T05:15:40;95.65;;;38.28;;
40290;SDS011;26000;48.304;13.626;2022-12-20T05:18:06;98.45;;;40.20;;
40290;SDS011;26000;48.304;13.626;2022-12-20T05:20:32;90.22;;;37.55;;
40290;SDS011;26000;48.304;13.626;2022-12-20T05:22:58;97.30;;;37.88;;
40290;SDS011;26000;48.304;13.626;2022-12-20T05:25:43;94.20;;;37.00;;
40290;SDS011;26000;48.304;13.626;2022-12-20T05:28:30;92.35;;;36.03;;
40290;SDS011;26000;48.304;13.626;2022-12-20T05:30:56;99.43;;;37.33;;
40290;SDS011;26000;48.304;13.626;2022-12-20T05:33:22;90.50;;;36.40;;
40290;SDS011;26000;48.304;13.626;2022-12-20T05:35:48;91.70;;;36.45;;
40290;SDS011;26000;48.304;13.626;2022-12-20T05:38:14;86.35;;;36.85;;
40290;SDS011;26000;48.304;13.626;2022-12-20T05:40:39;91.88;;;36.78;;
40290;SDS011;26000;48.304;13.626;2022-12-20T05:43:06;91.38;;;36.55;;
40290;SDS011;26000;48.304;13.626;2022-12-20T05:45:32;93.05;;;36.17;;
40290;SDS011;26000;48.304;13.626;2022-12-20T05:47:58;101.85;;;39.25;;
40290;SDS011;26000;48.304;13.626;2022-12-20T05:50:24;90.70;;;37.50;;
40290;SDS011;26000;48.304;13.626;2022-12-20T05:52:50;91.20;;;36.08;;
40290;SDS011;26000;48.304;13.626;2022-12-20T05:55:15;86.00;;;35.17;;
40290;SDS011;26000;48.304;13.626;2022-12-20T05:57:41;97.05;;;37.15;;
40290;SDS011;26000;48.304;13.626;2022-12-20T06:00:07;88.10;;;37.38;;
40290;SDS011;26000;48.304;13.626;2022-12-20T06:02:34;92.07;;;37.15;;
40290;SDS011;26000;48.304;13.626;2022-12-20T06:05:00;89.88;;;35.85;;
40290;SDS011;26000;48.304;13.626;2022-12-20T06:07:26;95.47;;;38.63;;
40290;SDS011;26000;48.304;13.626;2022-12-20T06:09:55;90.82;;;36.40;;
40290;SDS011;26000;48.304;13.626;2022-12-20T06:12:22;90.15;;;36.38;;
40290;SDS011;26000;48.304;13.626;2022-12-20T06:14:47;87.32;;;35.20;;
40290;SDS011;26000;48.304;13.626;2022-12-20T06:17:13;86.38;;;35.88;;
40290;SDS011;26000;48.304;13.626;2022-12-20T06:19:38;98.43;;;37.72;;
40290;SDS011;26000;48.304;13.626;2022-12-20T06:22:05;95.95;;;38.15;;
40290;SDS011;26000;48.304;13.626;2022-12-20T06:24:32;109.70;;;40.67;;
40290;SDS011;26000;48.304;13.626;2022-12-20T06:26:58;94.72;;;38.20;;
40290;SDS011;26000;48.304;13.626;2022-12-20T06:29:24;96.40;;;38.40;;
40290;SDS011;26000;48.304;13.626;2022-12-20T06:31:50;99.75;;;39.38;;
40290;SDS011;26000;48.304;13.626;2022-12-20T06:34:16;98.55;;;38.05;;
40290;SDS011;26000;48.304;13.626;2022-12-20T06:36:41;116.45;;;42.63;;
40290;SDS011;26000;48.304;13.626;2022-12-20T06:39:07;97.78;;;38.90;;
40290;SDS011;26000;48.304;13.626;2022-12-20T06:41:33;98.32;;;39.42;;
40290;SDS011;26000;48.304;13.626;2022-12-20T06:43:59;98.85;;;39.20;;
40290;SDS011;26000;48.304;13.626;2022-12-20T06:46:25;97.40;;;37.53;;
40290;SDS011;26000;48.304;13.626;2022-12-20T06:48:51;98.63;;;38.80;;
40290;SDS011;26000;48.304;13.626;2022-12-20T06:51:17;92.50;;;37.65;;
40290;SDS011;26000;48.304;13.626;2022-12-20T06:53:43;99.75;;;37.58;;
40290;SDS011;26000;48.304;13.626;2022-12-20T06:56:09;101.35;;;38.40;;
40290;SDS011;26000;48.304;13.626;2022-12-20T06:58:34;96.75;;;35.88;;
40290;SDS011;26000;48.304;13.626;2022-12-20T07:01:00;98.88;;;37.67;;
40290;SDS011;26000;48.304;13.626;2022-12-20T07:03:26;99.68;;;37.72;;
40290;SDS011;26000;48.304;13.626;2022-12-20T07:05:52;94.55;;;35.92;;
40290;SDS011;26000;48.304;13.626;2022-12-20T07:08:19;101.78;;;38.55;;
40290;SDS011;26000;48.304;13.626;2022-12-20T07:10:46;98.03;;;37.25;;
40290;SDS011;26000;48.304;13.626;2022-12-20T07:13:11;92.93;;;37.03;;
40290;SDS011;26000;48.304;13.626;2022-12-20T07:15:37;96.15;;;37.85;;
40290;SDS011;26000;48.304;13.626;2022-12-20T07:18:03;108.07;;;37.80;;
40290;SDS011;26000;48.304;13.626;2022-12-20T07:20:29;91.78;;;35.72;;
40290;SDS011;26000;48.304;13.626;2022-12-20T07:22:55;93.80;;;36.45;;
40290;SDS011;26000;48.304;13.626;2022-12-20T07:25:21;91.32;;;36.13;;
40290;SDS011;26000;48.304;13.626;2022-12-20T07:27:46;93.78;;;36.63;;
40290;SDS011;26000;48.304;13.626;2022-12-20T07:30:14;92.07;;;35.15;;
40290;SDS011;26000;48.304;13.626;2022-12-20T07:32:40;106.50;;;37.83;;
40290;SDS011;26000;48.304;13.626;2022-12-20T07:35:05;92.28;;;35.50;;
40290;SDS011;26000;48.304;13.626;2022-12-20T07:37:32;99.57;;;38.47;;
40290;SDS011;26000;48.304;13.626;2022-12-20T07:39:57;106.60;;;37.35;;
40290;SDS011;26000;48.304;13.626;2022-12-20T07:42:23;92.93;;;38.03;;
40290;SDS011;26000;48.304;13.626;2022-12-20T07:44:48;102.55;;;38.00;;
40290;SDS011;26000;48.304;13.626;2022-12-20T07:47:14;98.53;;;37.13;;
40290;SDS011;26000;48.304;13.626;2022-12-20T07:49:40;95.63;;;35.58;;
40290;SDS011;26000;48.304;13.626;2022-12-20T07:52:05;95.25;;;35.70;;
40290;SDS011;26000;48.304;13.626;2022-12-20T07:54:34;92.15;;;36.35;;
40290;SDS011;26000;48.304;13.626;2022-12-20T07:57:05;90.60;;;34.88;;
40290;SDS011;26000;48.304;13.626;2022-12-20T07:59:38;98.05;;;36.80;;
40290;SDS011;26000;48.304;13.626;2022-12-20T08:02:07;89.22;;;35.33;;
40290;SDS011;26000;48.304;13.626;2022-12-20T08:04:39;90.57;;;34.83;;
40290;SDS011;26000;48.304;13.626;2022-12-20T08:07:05;95.55;;;35.25;;
40290;SDS011;26000;48.304;13.626;2022-12-20T08:09:34;97.45;;;37.13;;
40290;SDS011;26000;48.304;13.626;2022-12-20T08:12:03;96.65;;;39.10;;
40290;SDS011;26000;48.304;13.626;2022-12-20T08:14:28;93.30;;;36.83;;
40290;SDS011;26000;48.304;13.626;2022-12-20T08:16:54;95.93;;;36.90;;
40290;SDS011;26000;48.304;13.626;2022-12-20T08:19:20;88.85;;;35.38;;
40290;SDS011;26000;48.304;13.626;2022-12-20T08:21:45;90.78;;;35.03;;
40290;SDS011;26000;48.304;13.626;2022-12-20T08:24:12;88.97;;;34.25;;
40290;SDS011;26000;48.304;13.626;2022-12-20T08:26:38;91.75;;;34.85;;
40290;SDS011;26000;48.304;13.626;2022-12-20T08:29:05;84.65;;;33.08;;
40290;SDS011;26000;48.304;13.626;2022-12-20T08:31:31;82.53;;;34.13;;
40290;SDS011;26000;48.304;13.626;2022-12-20T08:33:57;79.15;;;33.95;;
40290;SDS011;26000;48.304;13.626;2022-12-20T08:36:23;89.82;;;36.13;;
40290;SDS011;26000;48.304;13.626;2022-12-20T08:38:48;86.22;;;36.15;;
40290;SDS011;26000;48.304;13.626;2022-12-20T08:41:14;91.85;;;36.08;;
40290;SDS011;26000;48.304;13.626;2022-12-20T08:43:40;88.25;;;35.60;;
40290;SDS011;26000;48.304;13.626;2022-12-20T08:46:07;94.32;;;36.20;;
40290;SDS011;26000;48.304;13.626;2022-12-20T08:48:34;88.00;;;34.70;;
40290;SDS011;26000;48.304;13.626;2022-12-20T08:51:00;94.03;;;36.72;;
40290;SDS011;26000;48.304;13.626;2022-12-20T08:53:28;91.43;;;34.88;;
40290;SDS011;26000;48.304;13.626;2022-12-20T08:56:05;88.50;;;34.65;;
40290;SDS011;26000;48.304;13.626;2022-12-20T08:58:35;88.57;;;32.50;;
40290;SDS011;26000;48.304;13.626;2022-12-20T09:01:02;90.97;;;35.53;;
40290;SDS011;26000;48.304;13.626;2022-12-20T09:03:32;87.40;;;34.25;;
40290;SDS011;26000;48.304;13.626;2022-12-20T09:05:59;92.47;;;34.58;;
40290;SDS011;26000;48.304;13.626;2022-12-20T09:08:26;90.97;;;35.67;;
40290;SDS011;26000;48.304;13.626;2022-12-20T09:10:51;90.47;;;35.15;;
40290;SDS011;26000;48.304;13.626;2022-12-20T09:13:18;98.00;;;34.83;;
40290;SDS011;26000;48.304;13.626;2022-12-20T09:15:43;93.50;;;35.35;;
40290;SDS011;26000;48.304;13.626;2022-12-20T09:18:09;95.25;;;37.95;;
40290;SDS011;26000;48.304;13.626;2022-12-20T09:20:35;96.03;;;36.15;;
40290;SDS011;26000;48.304;13.626;2022-12-20T09:23:06;99.10;;;37.15;;
40290;SDS011;26000;48.304;13.626;2022-12-20T09:25:31;101.20;;;38.17;;
40290;SDS011;26000;48.304;13.626;2022-12-20T09:27:57;96.70;;;37.80;;
40290;SDS011;26000;48.304;13.626;2022-12-20T09:30:23;98.85;;;36.97;;
40290;SDS011;26000;48.304;13.626;2022-12-20T09:32:49;97.78;;;37.35;;
40290;SDS011;26000;48.304;13.626;2022-12-20T09:35:14;98.43;;;36.80;;
40290;SDS011;26000;48.304;13.626;2022-12-20T09:37:40;102.38;;;38.83;;
40290;SDS011;26000;48.304;13.626;2022-12-20T09:40:06;96.90;;;37.20;;
40290;SDS011;26000;48.304;13.626;2022-12-20T09:42:35;107.47;;;38.25;;
40290;SDS011;26000;48.304;13.626;2022-12-20T09:45:05;110.63;;;39.80;;
40290;SDS011;26000;48.304;13.626;2022-12-20T09:47:33;101.60;;;37.30;;
40290;SDS011;26000;48.304;13.626;2022-12-20T09:50:00;102.63;;;37.15;;
40290;SDS011;26000;48.304;13.626;2022-12-20T09:52:50;101.35;;;36.05;;
40290;SDS011;26000;48.304;13.626;2022-12-20T09:56:25;94.07;;;34.25;;
40290;SDS011;26000;48.304;13.626;2022-12-20T10:01:29;91.38;;;33.95;;
40290;SDS011;26000;48.304;13.626;2022-12-20T10:03:57;101.35;;;37.03;;
40290;SDS011;26000;48.304;13.626;2022-12-20T10:09:34;93.35;;;35.92;;
40290;SDS011;26000;48.304;13.626;2022-12-20T10:15:19;87.90;;;35.65;;
40290;SDS011;26000;48.304;13.626;2022-12-20T10:24:19;92.03;;;35.85;;
40290;SDS011;26000;48.304;13.626;2022-12-20T10:26:51;91.07;;;35.55;;
40290;SDS011;26000;48.304;13.626;2022-12-20T10:29:17;89.28;;;35.28;;
40290;SDS011;26000;48.304;13.626;2022-12-20T10:31:45;98.32;;;36.33;;
40290;SDS011;26000;48.304;13.626;2022-12-20T10:34:13;89.35;;;35.65;;
40290;SDS011;26000;48.304;13.626;2022-12-20T10:36:39;91.53;;;36.80;;
40290;SDS011;26000;48.304;13.626;2022-12-20T10:39:06;96.40;;;36.80;;
40290;SDS011;26000;48.304;13.626;2022-12-20T10:44:05;94.72;;;36.10;;
40290;SDS011;26000;48.304;13.626;2022-12-20T10:46:48;91.85;;;35.78;;
40290;SDS011;26000;48.304;13.626;2022-12-20T10:49:34;90.00;;;36.50;;
40290;SDS011;26000;48.304;13.626;2022-12-20T10:52:03;83.82;;;34.67;;
40290;SDS011;26000;48.304;13.626;2022-12-20T11:00:05;90.90;;;33.33;;
40290;SDS011;26000;48.304;13.626;2022-12-20T11:02:36;91.80;;;36.00;;
40290;SDS011;26000;48.304;13.626;2022-12-20T11:07:36;97.32;;;35.75;;
40290;SDS011;26000;48.304;13.626;2022-12-20T11:10:23;101.95;;;38.50;;
40290;SDS011;26000;48.304;13.626;2022-12-20T11:12:51;101.35;;;37.05;;
40290;SDS011;26000;48.304;13.626;2022-12-20T11:15:25;95.70;;;36.70;;
40290;SDS011;26000;48.304;13.626;2022-12-20T11:17:58;102.28;;;38.88;;
40290;SDS011;26000;48.304;13.626;2022-12-20T11:23:14;98.20;;;37.65;;
40290;SDS011;26000;48.304;13.626;2022-12-20T11:45:27;94.72;;;35.58;;
40290;SDS011;26000;48.304;13.626;2022-12-20T11:49:16;98.43;;;37.15;;
40290;SDS011;26000;48.304;13.626;2022-12-20T11:54:40;96.55;;;37.20;;
40290;SDS011;26000;48.304;13.626;2022-12-20T11:57:13;101.07;;;38.17;;
40290;SDS011;26000;48.304;13.626;2022-12-20T11:59:59;102.80;;;38.53;;
40290;SDS011;26000;48.304;13.626;2022-12-20T12:02:37;101.85;;;38.72;;
40290;SDS011;26000;48.304;13.626;2022-12-20T12:07:46;90.13;;;35.28;;
40290;SDS011;26000;48.304;13.626;2022-12-20T12:10:23;92.68;;;36.28;;
40290;SDS011;26000;48.304;13.626;2022-12-20T12:13:01;100.88;;;38.38;;
40290;SDS011;26000;48.304;13.626;2022-12-20T12:15:36;102.10;;;38.38;;
40290;SDS011;26000;48.304;13.626;2022-12-20T12:18:17;89.90;;;36.33;;
40290;SDS011;26000;48.304;13.626;2022-12-20T12:26:42;94.28;;;35.80;;
40290;SDS011;26000;48.304;13.626;2022-12-20T12:50:56;93.32;;;36.05;;
40290;SDS011;26000;48.304;13.626;2022-12-20T12:53:36;100.93;;;38.45;;
40290;SDS011;26000;48.304;13.626;2022-12-20T13:06:53;103.68;;;39.35;;
40290;SDS011;26000;48.304;13.626;2022-12-20T13:11:55;100.13;;;40.13;;
40290;SDS011;26000;48.304;13.626;2022-12-20T13:19:33;99.70;;;38.70;;
40290;SDS011;26000;48.304;13.626;2022-12-20T13:22:18;104.30;;;38.20;;
40290;SDS011;26000;48.304;13.626;2022-12-20T13:30:21;106.63;;;40.08;;
40290;SDS011;26000;48.304;13.626;2022-12-20T13:40:57;96.72;;;38.38;;
40290;SDS011;26000;48.304;13.626;2022-12-20T13:43:25;97.05;;;37.63;;
40290;SDS011;26000;48.304;13.626;2022-12-20T13:51:15;103.60;;;38.90;;
40290;SDS011;26000;48.304;13.626;2022-12-20T13:53:50;100.70;;;39.70;;
40290;SDS011;26000;48.304;13.626;2022-12-20T13:58:56;95.85;;;37.15;;
40290;SDS011;26000;48.304;13.626;2022-12-20T14:01:28;100.65;;;39.20;;
40290;SDS011;26000;48.304;13.626;2022-12-20T14:03:55;102.93;;;39.05;;
40290;SDS011;26000;48.304;13.626;2022-12-20T14:06:21;106.05;;;39.85;;
40290;SDS011;26000;48.304;13.626;2022-12-20T14:08:49;101.13;;;38.55;;
40290;SDS011;26000;48.304;13.626;2022-12-20T14:11:22;100.88;;;40.53;;
40290;SDS011;26000;48.304;13.626;2022-12-20T14:13:53;91.72;;;37.85;;
40290;SDS011;26000;48.304;13.626;2022-12-20T14:16:24;102.57;;;39.72;;
40290;SDS011;26000;48.304;13.626;2022-12-20T14:21:27;103.15;;;40.28;;
40290;SDS011;26000;48.304;13.626;2022-12-20T14:23:54;97.45;;;39.40;;
40290;SDS011;26000;48.304;13.626;2022-12-20T14:26:29;96.88;;;38.03;;
40290;SDS011;26000;48.304;13.626;2022-12-20T14:28:59;97.20;;;36.60;;
40290;SDS011;26000;48.304;13.626;2022-12-20T14:34:03;94.63;;;37.42;;
40290;SDS011;26000;48.304;13.626;2022-12-20T14:36:34;93.68;;;37.78;;
40290;SDS011;26000;48.304;13.626;2022-12-20T14:39:09;94.38;;;36.38;;
40290;SDS011;26000;48.304;13.626;2022-12-20T14:42:15;98.47;;;38.22;;
40290;SDS011;26000;48.304;13.626;2022-12-20T14:44:43;98.25;;;37.60;;
40290;SDS011;26000;48.304;13.626;2022-12-20T14:47:22;103.50;;;38.78;;
40290;SDS011;26000;48.304;13.626;2022-12-20T14:49:51;93.63;;;37.83;;
40290;SDS011;26000;48.304;13.626;2022-12-20T14:52:42;102.90;;;38.63;;
40290;SDS011;26000;48.304;13.626;2022-12-20T14:55:10;101.18;;;38.65;;
40290;SDS011;26000;48.304;13.626;2022-12-20T14:57:51;96.43;;;36.75;;
40290;SDS011;26000;48.304;13.626;2022-12-20T15:00:28;106.55;;;38.75;;
40290;SDS011;26000;48.304;13.626;2022-12-20T15:10:54;91.28;;;37.53;;
40290;SDS011;26000;48.304;13.626;2022-12-20T15:13:33;94.68;;;38.80;;
40290;SDS011;26000;48.304;13.626;2022-12-20T15:16:03;97.70;;;38.50;;
40290;SDS011;26000;48.304;13.626;2022-12-20T15:18:37;98.97;;;38.75;;
40290;SDS011;26000;48.304;13.626;2022-12-20T15:21:10;103.05;;;40.58;;
40290;SDS011;26000;48.304;13.626;2022-12-20T15:23:45;101.75;;;38.60;;
40290;SDS011;26000;48.304;13.626;2022-12-20T15:26:17;104.05;;;40.33;;
40290;SDS011;26000;48.304;13.626;2022-12-20T15:28:44;97.45;;;37.33;;
40290;SDS011;26000;48.304;13.626;2022-12-20T15:31:10;105.32;;;40.25;;
40290;SDS011;26000;48.304;13.626;2022-12-20T15:33:37;108.28;;;41.33;;
40290;SDS011;26000;48.304;13.626;2022-12-20T15:36:04;116.57;;;42.38;;
40290;SDS011;26000;48.304;13.626;2022-12-20T15:38:30;100.57;;;38.67;;
40290;SDS011;26000;48.304;13.626;2022-12-20T15:40:59;111.22;;;39.47;;
40290;SDS011;26000;48.304;13.626;2022-12-20T15:43:31;104.13;;;40.43;;
40290;SDS011;26000;48.304;13.626;2022-12-20T15:46:01;99.82;;;40.10;;
40290;SDS011;26000;48.304;13.626;2022-12-20T15:48:27;105.82;;;40.15;;
40290;SDS011;26000;48.304;13.626;2022-12-20T15:50:54;105.22;;;38.85;;
40290;SDS011;26000;48.304;13.626;2022-12-20T15:53:27;105.18;;;39.30;;
40290;SDS011;26000;48.304;13.626;2022-12-20T15:55:56;106.50;;;40.42;;
40290;SDS011;26000;48.304;13.626;2022-12-20T15:58:22;105.13;;;39.72;;
40290;SDS011;26000;48.304;13.626;2022-12-20T16:00:49;99.53;;;38.55;;
40290;SDS011;26000;48.304;13.626;2022-12-20T16:03:18;106.88;;;40.30;;
40290;SDS011;26000;48.304;13.626;2022-12-20T16:05:46;96.32;;;37.47;;
40290;SDS011;26000;48.304;13.626;2022-12-20T16:08:13;106.40;;;39.00;;
40290;SDS011;26000;48.304;13.626;2022-12-20T16:10:41;98.75;;;38.25;;
40290;SDS011;26000;48.304;13.626;2022-12-20T16:13:11;93.05;;;38.97;;
40290;SDS011;26000;48.304;13.626;2022-12-20T16:15:46;103.20;;;40.58;;
40290;SDS011;26000;48.304;13.626;2022-12-20T16:18:11;97.63;;;39.03;;
40290;SDS011;26000;48.304;13.626;2022-12-20T16:20:37;103.97;;;39.35;;
40290;SDS011;26000;48.304;13.626;2022-12-20T16:23:03;103.75;;;39.28;;
40290;SDS011;26000;48.304;13.626;2022-12-20T16:25:32;100.32;;;42.70;;
40290;SDS011;26000;48.304;13.626;2022-12-20T16:28:00;112.75;;;41.63;;
40290;SDS011;26000;48.304;13.626;2022-12-20T16:30:26;99.25;;;38.75;;
40290;SDS011;26000;48.304;13.626;2022-12-20T16:32:52;100.65;;;39.60;;
40290;SDS011;26000;48.304;13.626;2022-12-20T16:37:47;99.18;;;39.17;;
40290;SDS011;26000;48.304;13.626;2022-12-20T16:40:13;99.05;;;39.38;;
40290;SDS011;26000;48.304;13.626;2022-12-20T16:42:41;108.65;;;39.22;;
40290;SDS011;26000;48.304;13.626;2022-12-20T16:45:12;110.78;;;39.10;;
40290;SDS011;26000;48.304;13.626;2022-12-20T16:47:45;104.78;;;39.05;;
40290;SDS011;26000;48.304;13.626;2022-12-20T16:50:11;103.65;;;40.42;;
40290;SDS011;26000;48.304;13.626;2022-12-20T16:52:37;111.32;;;41.60;;
40290;SDS011;26000;48.304;13.626;2022-12-20T16:55:03;105.50;;;40.10;;